Lone Star Executive Airport
KCXO : now visible

Airfield :











YOU CAN JOIN US ON...

 
LOGIN :

Register | Disclaimer

   EN    FR    IT 

 









Legend :    VFR   Marginal VFR   IFR   Intensive IFR   Very Intensive IFR
Visi :
Ceiling :
>= 8 km
>= 3000ft
5 to 8 km
1000 to 3000 ft
1500m to 5 km
500 to 1000 ft
800 to 1500m
200 to 500 ft
< 800m
< 200 ft
Symbols :   Thunderstorms  Fog  Heavy snow  Heavy precipitations  Wind > 20 kt






- Airport Elevation : 245 ft


KCXO - Lone Star Executive

CURRENT METAR :
  • 271440Z 34007KT 4SM BR OVC003 13/12 A3004 RMK AO2 T01280117

EXPIRED METARs :
  • 271430Z 35008KT 2 1/2SM BR OVC003 13/12 A3004 RMK AO2 VIS 2V4 T01280117
  • 271353Z 33010KT 4SM BR OVC003 13/12 A3003 RMK AO2 SLP168 T01280117
  • 271253Z 35006KT 5SM BR OVC003 13/12 A3002 RMK AO2 SLP163 T01280117
  • 271153Z 33007KT 4SM BR OVC003 13/12 A3000 RMK AO2 SLP158 T01330122 10161 20133 55003

TAF KCXO
Valid from the 27 at 15:00 until the 28 at 12:00 UTC


271435Z 2715/2812 35006KT 5SM BR OVC003
FM271600 35006KT P6SM OVC010
FM272100 35007KT P6SM BKN025
FM280300 36005KT P6SM OVC012
FM280600 02005KT 3SM -DZ BR VCSH OVC004
KZHU FIR / North America



MET'MAP, your aeronautical weather chart ! - Copyright ORBIFLY December 2007 - Disclaimer

ORBIFLY MET'MAP TEAM :

Programming & Development : Alexandra Zaïnal
Concept & original design : Baudouin d'Aumeries
Assistance for programming : Marc-Olivier Méhu
Technical & hardware support : Manuel Goepfert

Contact : metmap@orbifly.com




SOURCES & CREDITS :

   NOAA       Earth
Advisory